Kasugai, Japan
Current Conditions -  °F | °C
As of 12:34 PM on Saturday 29 Nov 2014 (Local Time) from RJNG Reporting Station
Broken Clouds Broken Clouds  
Wind Chill: 59°   Ceiling: 2500
Heat Index: 59°   Visibility: 6mi
Dew Point: 59°   Wind: 2mph
Humidity: 100%   Direction: 280°W
Pressure: 29.91"   Gusts: NA
Location:  35.24°N, 136.98°E
Report Text: RJNG 290334Z 28002KT 9999 FEW008 SCT015 BKN025 15/15 Q1013 RMK 1CU008 4CU015 5CU025 A2993
Loading
Personal Weather Stations






























Interactive Weather Map New forecast layout! Learn more

10-Day Weather Forecast

Advertisements
Track Severe Weather on mobile